sensor_id;sensor_type;location;lat;lon;timestamp;P1;durP1;ratioP1;P2;durP2;ratioP2
38911;SDS011;28444;48.056;14.408;2022-10-16T00:00:53;10.30;;;3.85;;
38911;SDS011;28444;48.056;14.408;2022-10-16T00:03:20;7.13;;;2.85;;
38911;SDS011;28444;48.056;14.408;2022-10-16T00:05:53;15.82;;;3.60;;
38911;SDS011;28444;48.056;14.408;2022-10-16T00:08:19;13.20;;;3.80;;
38911;SDS011;28444;48.056;14.408;2022-10-16T00:10:46;12.68;;;3.45;;
38911;SDS011;28444;48.056;14.408;2022-10-16T00:13:12;4.28;;;3.22;;
38911;SDS011;28444;48.056;14.408;2022-10-16T00:15:39;5.82;;;2.92;;
38911;SDS011;28444;48.056;14.408;2022-10-16T00:18:06;5.65;;;2.72;;
38911;SDS011;28444;48.056;14.408;2022-10-16T00:20:35;5.88;;;2.80;;
38911;SDS011;28444;48.056;14.408;2022-10-16T00:23:03;8.23;;;3.60;;
38911;SDS011;28444;48.056;14.408;2022-10-16T00:25:31;10.02;;;3.30;;
38911;SDS011;28444;48.056;14.408;2022-10-16T00:27:59;8.77;;;2.75;;
38911;SDS011;28444;48.056;14.408;2022-10-16T00:30:27;8.82;;;2.00;;
38911;SDS011;28444;48.056;14.408;2022-10-16T00:32:54;6.22;;;2.53;;
38911;SDS011;28444;48.056;14.408;2022-10-16T00:35:21;5.13;;;2.78;;
38911;SDS011;28444;48.056;14.408;2022-10-16T00:37:48;6.05;;;2.22;;
38911;SDS011;28444;48.056;14.408;2022-10-16T00:40:14;7.32;;;2.42;;
38911;SDS011;28444;48.056;14.408;2022-10-16T00:42:41;10.07;;;2.25;;
38911;SDS011;28444;48.056;14.408;2022-10-16T00:45:08;6.15;;;2.03;;
38911;SDS011;28444;48.056;14.408;2022-10-16T00:47:45;6.82;;;2.53;;
38911;SDS011;28444;48.056;14.408;2022-10-16T00:50:26;7.35;;;2.13;;
38911;SDS011;28444;48.056;14.408;2022-10-16T00:52:58;11.70;;;2.50;;
38911;SDS011;28444;48.056;14.408;2022-10-16T00:55:27;14.05;;;2.50;;
38911;SDS011;28444;48.056;14.408;2022-10-16T00:57:56;8.05;;;2.22;;
38911;SDS011;28444;48.056;14.408;2022-10-16T01:00:25;5.72;;;2.30;;
38911;SDS011;28444;48.056;14.408;2022-10-16T01:02:53;6.82;;;2.72;;
38911;SDS011;28444;48.056;14.408;2022-10-16T01:05:26;6.38;;;2.22;;
38911;SDS011;28444;48.056;14.408;2022-10-16T01:08:13;17.70;;;2.58;;
38911;SDS011;28444;48.056;14.408;2022-10-16T01:11:01;4.97;;;2.03;;
38911;SDS011;28444;48.056;14.408;2022-10-16T01:13:55;14.57;;;2.45;;
38911;SDS011;28444;48.056;14.408;2022-10-16T01:16:29;3.65;;;1.95;;
38911;SDS011;28444;48.056;14.408;2022-10-16T01:22:15;8.18;;;2.20;;
38911;SDS011;28444;48.056;14.408;2022-10-16T01:24:44;28.17;;;3.55;;
38911;SDS011;28444;48.056;14.408;2022-10-16T01:27:15;7.22;;;2.00;;
38911;SDS011;28444;48.056;14.408;2022-10-16T01:30:11;10.32;;;2.58;;
38911;SDS011;28444;48.056;14.408;2022-10-16T01:32:45;7.47;;;2.78;;
38911;SDS011;28444;48.056;14.408;2022-10-16T01:38:14;7.38;;;2.28;;
38911;SDS011;28444;48.056;14.408;2022-10-16T01:40:51;7.22;;;1.88;;
38911;SDS011;28444;48.056;14.408;2022-10-16T01:43:45;5.57;;;2.30;;
38911;SDS011;28444;48.056;14.408;2022-10-16T01:46:14;10.77;;;1.90;;
38911;SDS011;28444;48.056;14.408;2022-10-16T01:48:45;3.78;;;2.55;;
38911;SDS011;28444;48.056;14.408;2022-10-16T01:51:12;11.80;;;2.90;;
38911;SDS011;28444;48.056;14.408;2022-10-16T01:53:43;12.63;;;2.42;;
38911;SDS011;28444;48.056;14.408;2022-10-16T01:56:14;6.57;;;2.67;;
38911;SDS011;28444;48.056;14.408;2022-10-16T01:58:45;6.18;;;2.05;;
38911;SDS011;28444;48.056;14.408;2022-10-16T02:01:16;4.95;;;2.00;;
38911;SDS011;28444;48.056;14.408;2022-10-16T02:03:48;12.68;;;2.53;;
38911;SDS011;28444;48.056;14.408;2022-10-16T02:06:18;4.60;;;2.22;;
38911;SDS011;28444;48.056;14.408;2022-10-16T02:08:45;8.68;;;2.08;;
38911;SDS011;28444;48.056;14.408;2022-10-16T02:11:12;7.68;;;3.20;;
38911;SDS011;28444;48.056;14.408;2022-10-16T02:13:44;8.23;;;2.17;;
38911;SDS011;28444;48.056;14.408;2022-10-16T02:16:13;2.97;;;2.10;;
38911;SDS011;28444;48.056;14.408;2022-10-16T02:18:40;3.85;;;2.38;;
38911;SDS011;28444;48.056;14.408;2022-10-16T02:24:03;10.55;;;2.72;;
38911;SDS011;28444;48.056;14.408;2022-10-16T02:26:52;7.55;;;3.05;;
38911;SDS011;28444;48.056;14.408;2022-10-16T02:29:45;6.72;;;3.25;;
38911;SDS011;28444;48.056;14.408;2022-10-16T02:32:17;6.80;;;4.65;;
38911;SDS011;28444;48.056;14.408;2022-10-16T02:34:48;11.60;;;4.63;;
38911;SDS011;28444;48.056;14.408;2022-10-16T02:37:16;8.10;;;5.18;;
38911;SDS011;28444;48.056;14.408;2022-10-16T02:39:44;4.97;;;3.20;;
38911;SDS011;28444;48.056;14.408;2022-10-16T02:42:13;15.80;;;3.30;;
38911;SDS011;28444;48.056;14.408;2022-10-16T02:44:41;7.38;;;3.10;;
38911;SDS011;28444;48.056;14.408;2022-10-16T02:47:07;5.45;;;2.70;;
38911;SDS011;28444;48.056;14.408;2022-10-16T02:49:34;4.80;;;3.05;;
38911;SDS011;28444;48.056;14.408;2022-10-16T02:52:01;14.65;;;3.20;;
38911;SDS011;28444;48.056;14.408;2022-10-16T02:54:27;2.97;;;2.08;;
38911;SDS011;28444;48.056;14.408;2022-10-16T02:56:54;6.43;;;2.75;;
38911;SDS011;28444;48.056;14.408;2022-10-16T02:59:21;11.55;;;2.40;;
38911;SDS011;28444;48.056;14.408;2022-10-16T03:01:47;2.95;;;2.38;;
38911;SDS011;28444;48.056;14.408;2022-10-16T03:04:14;6.97;;;2.38;;
38911;SDS011;28444;48.056;14.408;2022-10-16T03:06:41;4.68;;;2.30;;
38911;SDS011;28444;48.056;14.408;2022-10-16T03:09:07;5.78;;;2.30;;
38911;SDS011;28444;48.056;14.408;2022-10-16T03:11:34;3.95;;;2.55;;
38911;SDS011;28444;48.056;14.408;2022-10-16T03:14:01;11.05;;;2.80;;
38911;SDS011;28444;48.056;14.408;2022-10-16T03:16:27;12.52;;;2.47;;
38911;SDS011;28444;48.056;14.408;2022-10-16T03:18:54;3.35;;;2.03;;
38911;SDS011;28444;48.056;14.408;2022-10-16T03:21:21;7.32;;;2.70;;
38911;SDS011;28444;48.056;14.408;2022-10-16T03:23:47;6.90;;;2.75;;
38911;SDS011;28444;48.056;14.408;2022-10-16T03:26:14;5.88;;;2.10;;
38911;SDS011;28444;48.056;14.408;2022-10-16T03:28:41;3.33;;;2.40;;
38911;SDS011;28444;48.056;14.408;2022-10-16T03:31:07;9.18;;;3.95;;
38911;SDS011;28444;48.056;14.408;2022-10-16T03:33:34;10.70;;;3.20;;
38911;SDS011;28444;48.056;14.408;2022-10-16T03:36:01;4.97;;;2.30;;
38911;SDS011;28444;48.056;14.408;2022-10-16T03:38:28;12.23;;;2.90;;
38911;SDS011;28444;48.056;14.408;2022-10-16T03:40:54;9.38;;;3.13;;
38911;SDS011;28444;48.056;14.408;2022-10-16T03:43:21;5.97;;;2.83;;
38911;SDS011;28444;48.056;14.408;2022-10-16T03:45:49;12.20;;;3.10;;
38911;SDS011;28444;48.056;14.408;2022-10-16T03:48:20;4.88;;;2.38;;
38911;SDS011;28444;48.056;14.408;2022-10-16T03:50:47;11.73;;;2.60;;
38911;SDS011;28444;48.056;14.408;2022-10-16T03:53:14;6.60;;;2.40;;
38911;SDS011;28444;48.056;14.408;2022-10-16T03:55:41;4.22;;;2.08;;
38911;SDS011;28444;48.056;14.408;2022-10-16T03:58:09;2.55;;;1.90;;
38911;SDS011;28444;48.056;14.408;2022-10-16T04:00:39;2.45;;;1.88;;
38911;SDS011;28444;48.056;14.408;2022-10-16T04:03:10;4.53;;;2.30;;
38911;SDS011;28444;48.056;14.408;2022-10-16T04:05:37;5.90;;;2.60;;
38911;SDS011;28444;48.056;14.408;2022-10-16T04:08:04;22.17;;;2.70;;
38911;SDS011;28444;48.056;14.408;2022-10-16T04:10:31;10.30;;;2.67;;
38911;SDS011;28444;48.056;14.408;2022-10-16T04:12:58;8.77;;;2.25;;
38911;SDS011;28444;48.056;14.408;2022-10-16T04:15:24;7.13;;;2.10;;
38911;SDS011;28444;48.056;14.408;2022-10-16T04:17:52;9.20;;;3.20;;
38911;SDS011;28444;48.056;14.408;2022-10-16T04:20:19;3.63;;;2.33;;
38911;SDS011;28444;48.056;14.408;2022-10-16T04:22:45;8.93;;;2.65;;
38911;SDS011;28444;48.056;14.408;2022-10-16T04:25:12;5.47;;;3.45;;
38911;SDS011;28444;48.056;14.408;2022-10-16T04:27:39;4.20;;;2.80;;
38911;SDS011;28444;48.056;14.408;2022-10-16T04:30:11;6.18;;;3.03;;
38911;SDS011;28444;48.056;14.408;2022-10-16T04:32:37;8.13;;;2.53;;
38911;SDS011;28444;48.056;14.408;2022-10-16T04:35:04;5.38;;;2.70;;
38911;SDS011;28444;48.056;14.408;2022-10-16T04:37:31;4.65;;;2.70;;
38911;SDS011;28444;48.056;14.408;2022-10-16T04:39:58;8.75;;;3.00;;
38911;SDS011;28444;48.056;14.408;2022-10-16T04:42:25;8.00;;;2.83;;
38911;SDS011;28444;48.056;14.408;2022-10-16T04:44:51;4.93;;;2.65;;
38911;SDS011;28444;48.056;14.408;2022-10-16T04:47:18;3.72;;;2.78;;
38911;SDS011;28444;48.056;14.408;2022-10-16T04:49:45;4.75;;;2.65;;
38911;SDS011;28444;48.056;14.408;2022-10-16T04:52:11;5.05;;;2.50;;
38911;SDS011;28444;48.056;14.408;2022-10-16T04:54:38;3.30;;;2.40;;
38911;SDS011;28444;48.056;14.408;2022-10-16T04:57:04;3.13;;;2.22;;
38911;SDS011;28444;48.056;14.408;2022-10-16T04:59:31;3.97;;;2.75;;
38911;SDS011;28444;48.056;14.408;2022-10-16T05:01:58;3.03;;;1.67;;
38911;SDS011;28444;48.056;14.408;2022-10-16T05:04:24;4.18;;;2.20;;
38911;SDS011;28444;48.056;14.408;2022-10-16T05:06:51;5.85;;;1.88;;
38911;SDS011;28444;48.056;14.408;2022-10-16T05:09:17;8.07;;;2.50;;
38911;SDS011;28444;48.056;14.408;2022-10-16T05:11:44;6.38;;;2.72;;
38911;SDS011;28444;48.056;14.408;2022-10-16T05:14:11;23.25;;;2.58;;
38911;SDS011;28444;48.056;14.408;2022-10-16T05:16:38;6.18;;;1.98;;
38911;SDS011;28444;48.056;14.408;2022-10-16T05:19:04;36.95;;;4.28;;
38911;SDS011;28444;48.056;14.408;2022-10-16T05:21:51;19.38;;;3.45;;
38911;SDS011;28444;48.056;14.408;2022-10-16T05:24:18;4.20;;;1.80;;
38911;SDS011;28444;48.056;14.408;2022-10-16T05:26:44;5.82;;;2.40;;
38911;SDS011;28444;48.056;14.408;2022-10-16T05:29:11;3.88;;;2.58;;
38911;SDS011;28444;48.056;14.408;2022-10-16T05:31:38;20.77;;;10.40;;
38911;SDS011;28444;48.056;14.408;2022-10-16T05:34:04;84.07;;;38.88;;
38911;SDS011;28444;48.056;14.408;2022-10-16T05:36:31;60.22;;;29.48;;
38911;SDS011;28444;48.056;14.408;2022-10-16T05:38:58;34.72;;;18.75;;
38911;SDS011;28444;48.056;14.408;2022-10-16T05:41:24;72.07;;;38.38;;
38911;SDS011;28444;48.056;14.408;2022-10-16T05:43:52;52.47;;;29.42;;
38911;SDS011;28444;48.056;14.408;2022-10-16T05:46:19;36.30;;;22.08;;
38911;SDS011;28444;48.056;14.408;2022-10-16T05:48:46;23.73;;;12.70;;
38911;SDS011;28444;48.056;14.408;2022-10-16T05:51:13;20.70;;;11.60;;
38911;SDS011;28444;48.056;14.408;2022-10-16T05:53:41;21.02;;;12.13;;
38911;SDS011;28444;48.056;14.408;2022-10-16T05:56:12;12.15;;;7.80;;
38911;SDS011;28444;48.056;14.408;2022-10-16T05:58:40;38.00;;;7.85;;
38911;SDS011;28444;48.056;14.408;2022-10-16T06:01:09;69.75;;;9.18;;
38911;SDS011;28444;48.056;14.408;2022-10-16T06:03:38;79.03;;;8.02;;
38911;SDS011;28444;48.056;14.408;2022-10-16T06:06:09;13.30;;;5.38;;
38911;SDS011;28444;48.056;14.408;2022-10-16T06:11:05;137.95;;;9.15;;
38911;SDS011;28444;48.056;14.408;2022-10-16T06:13:33;62.50;;;4.93;;
38911;SDS011;28444;48.056;14.408;2022-10-16T06:16:00;4.25;;;2.47;;
38911;SDS011;28444;48.056;14.408;2022-10-16T06:18:28;51.65;;;7.07;;
38911;SDS011;28444;48.056;14.408;2022-10-16T06:20:55;68.03;;;6.90;;
38911;SDS011;28444;48.056;14.408;2022-10-16T06:23:23;15.68;;;3.92;;
38911;SDS011;28444;48.056;14.408;2022-10-16T06:25:50;38.95;;;5.53;;
38911;SDS011;28444;48.056;14.408;2022-10-16T06:28:16;31.17;;;4.38;;
38911;SDS011;28444;48.056;14.408;2022-10-16T06:30:43;124.38;;;8.48;;
38911;SDS011;28444;48.056;14.408;2022-10-16T06:33:10;144.02;;;7.50;;
38911;SDS011;28444;48.056;14.408;2022-10-16T06:35:37;52.40;;;3.92;;
38911;SDS011;28444;48.056;14.408;2022-10-16T06:38:04;21.52;;;11.50;;
38911;SDS011;28444;48.056;14.408;2022-10-16T06:40:30;79.38;;;6.57;;
38911;SDS011;28444;48.056;14.408;2022-10-16T06:42:57;12.88;;;3.13;;
38911;SDS011;28444;48.056;14.408;2022-10-16T06:45:24;34.90;;;2.90;;
38911;SDS011;28444;48.056;14.408;2022-10-16T06:47:50;33.05;;;3.22;;
38911;SDS011;28444;48.056;14.408;2022-10-16T06:50:17;4.07;;;1.92;;
38911;SDS011;28444;48.056;14.408;2022-10-16T06:52:44;8.38;;;1.77;;
38911;SDS011;28444;48.056;14.408;2022-10-16T06:55:10;5.32;;;1.98;;
38911;SDS011;28444;48.056;14.408;2022-10-16T06:57:37;5.68;;;2.13;;
38911;SDS011;28444;48.056;14.408;2022-10-16T07:00:04;17.55;;;13.88;;
38911;SDS011;28444;48.056;14.408;2022-10-16T07:02:31;29.75;;;22.48;;
38911;SDS011;28444;48.056;14.408;2022-10-16T07:04:58;33.35;;;23.63;;
38911;SDS011;28444;48.056;14.408;2022-10-16T07:07:24;8.73;;;6.43;;
38911;SDS011;28444;48.056;14.408;2022-10-16T07:09:52;6.22;;;3.03;;
38911;SDS011;28444;48.056;14.408;2022-10-16T07:12:19;10.75;;;2.55;;
38911;SDS011;28444;48.056;14.408;2022-10-16T07:14:46;4.53;;;2.53;;
38911;SDS011;28444;48.056;14.408;2022-10-16T07:17:12;18.00;;;14.20;;
38911;SDS011;28444;48.056;14.408;2022-10-16T07:19:39;21.92;;;18.67;;
38911;SDS011;28444;48.056;14.408;2022-10-16T07:22:06;29.98;;;23.15;;
38911;SDS011;28444;48.056;14.408;2022-10-16T07:24:32;12.05;;;7.68;;
38911;SDS011;28444;48.056;14.408;2022-10-16T07:26:59;4.18;;;3.50;;
38911;SDS011;28444;48.056;14.408;2022-10-16T07:29:26;6.35;;;2.95;;
38911;SDS011;28444;48.056;14.408;2022-10-16T07:31:52;3.25;;;2.95;;
38911;SDS011;28444;48.056;14.408;2022-10-16T07:34:19;2.95;;;2.58;;
38911;SDS011;28444;48.056;14.408;2022-10-16T07:36:48;4.38;;;3.20;;
38911;SDS011;28444;48.056;14.408;2022-10-16T07:39:16;4.43;;;3.45;;
38911;SDS011;28444;48.056;14.408;2022-10-16T07:41:43;4.28;;;3.53;;
38911;SDS011;28444;48.056;14.408;2022-10-16T07:44:10;4.93;;;3.15;;
38911;SDS011;28444;48.056;14.408;2022-10-16T07:46:36;8.27;;;3.70;;
38911;SDS011;28444;48.056;14.408;2022-10-16T07:49:03;4.43;;;3.70;;
38911;SDS011;28444;48.056;14.408;2022-10-16T07:51:30;4.88;;;4.18;;
38911;SDS011;28444;48.056;14.408;2022-10-16T07:53:56;5.07;;;4.45;;
38911;SDS011;28444;48.056;14.408;2022-10-16T07:56:23;9.02;;;4.18;;
38911;SDS011;28444;48.056;14.408;2022-10-16T07:58:50;4.07;;;3.63;;
38911;SDS011;28444;48.056;14.408;2022-10-16T08:01:18;3.90;;;3.47;;
38911;SDS011;28444;48.056;14.408;2022-10-16T08:03:46;4.85;;;4.00;;
38911;SDS011;28444;48.056;14.408;2022-10-16T08:06:14;7.18;;;3.88;;
38911;SDS011;28444;48.056;14.408;2022-10-16T08:08:41;9.98;;;3.45;;
38911;SDS011;28444;48.056;14.408;2022-10-16T08:11:08;5.57;;;3.63;;
38911;SDS011;28444;48.056;14.408;2022-10-16T08:13:35;5.95;;;3.78;;
38911;SDS011;28444;48.056;14.408;2022-10-16T08:16:03;5.72;;;3.88;;
38911;SDS011;28444;48.056;14.408;2022-10-16T08:18:34;6.10;;;4.80;;
38911;SDS011;28444;48.056;14.408;2022-10-16T08:21:02;5.03;;;3.60;;
38911;SDS011;28444;48.056;14.408;2022-10-16T08:23:30;9.52;;;3.35;;
38911;SDS011;28444;48.056;14.408;2022-10-16T08:26:01;4.05;;;3.28;;
38911;SDS011;28444;48.056;14.408;2022-10-16T08:28:30;8.27;;;2.72;;
38911;SDS011;28444;48.056;14.408;2022-10-16T08:31:04;8.77;;;3.40;;
38911;SDS011;28444;48.056;14.408;2022-10-16T08:33:38;4.03;;;2.83;;
38911;SDS011;28444;48.056;14.408;2022-10-16T08:36:07;8.50;;;3.03;;
38911;SDS011;28444;48.056;14.408;2022-10-16T08:38:35;2.42;;;2.22;;
38911;SDS011;28444;48.056;14.408;2022-10-16T08:47:48;3.15;;;2.33;;
38911;SDS011;28444;48.056;14.408;2022-10-16T08:50:36;3.05;;;2.60;;
38911;SDS011;28444;48.056;14.408;2022-10-16T08:53:04;10.15;;;2.85;;
38911;SDS011;28444;48.056;14.408;2022-10-16T08:55:34;8.27;;;2.55;;
38911;SDS011;28444;48.056;14.408;2022-10-16T08:58:14;3.05;;;2.75;;
38911;SDS011;28444;48.056;14.408;2022-10-16T09:00:43;4.10;;;2.90;;
38911;SDS011;28444;48.056;14.408;2022-10-16T09:07:01;4.68;;;2.72;;
38911;SDS011;28444;48.056;14.408;2022-10-16T09:11:03;5.03;;;2.65;;
38911;SDS011;28444;48.056;14.408;2022-10-16T09:12:53;3.47;;;2.90;;
38911;SDS011;28444;48.056;14.408;2022-10-16T09:19:05;4.78;;;2.58;;
38911;SDS011;28444;48.056;14.408;2022-10-16T09:21:46;2.72;;;1.88;;
38911;SDS011;28444;48.056;14.408;2022-10-16T09:24:15;3.20;;;2.35;;
38911;SDS011;28444;48.056;14.408;2022-10-16T09:26:45;7.75;;;2.70;;
38911;SDS011;28444;48.056;14.408;2022-10-16T09:29:16;7.00;;;2.58;;
38911;SDS011;28444;48.056;14.408;2022-10-16T09:31:49;4.80;;;2.20;;
38911;SDS011;28444;48.056;14.408;2022-10-16T09:34:20;4.70;;;2.50;;
38911;SDS011;28444;48.056;14.408;2022-10-16T09:36:57;5.43;;;3.15;;
38911;SDS011;28444;48.056;14.408;2022-10-16T09:39:25;8.57;;;3.30;;
38911;SDS011;28444;48.056;14.408;2022-10-16T09:41:52;4.90;;;2.50;;
38911;SDS011;28444;48.056;14.408;2022-10-16T09:44:28;4.10;;;2.53;;
38911;SDS011;28444;48.056;14.408;2022-10-16T09:49:29;4.32;;;2.80;;
38911;SDS011;28444;48.056;14.408;2022-10-16T09:52:03;4.57;;;2.63;;
38911;SDS011;28444;48.056;14.408;2022-10-16T09:54:48;5.72;;;2.80;;
38911;SDS011;28444;48.056;14.408;2022-10-16T09:57:19;5.38;;;3.30;;
38911;SDS011;28444;48.056;14.408;2022-10-16T09:59:56;4.18;;;3.10;;
38911;SDS011;28444;48.056;14.408;2022-10-16T10:02:36;3.92;;;2.72;;
38911;SDS011;28444;48.056;14.408;2022-10-16T10:05:05;4.38;;;2.70;;
38911;SDS011;28444;48.056;14.408;2022-10-16T10:07:43;5.28;;;3.92;;
38911;SDS011;28444;48.056;14.408;2022-10-16T10:10:23;3.90;;;3.20;;
38911;SDS011;28444;48.056;14.408;2022-10-16T10:12:52;2.78;;;2.55;;
38911;SDS011;28444;48.056;14.408;2022-10-16T10:15:21;16.33;;;3.25;;
38911;SDS011;28444;48.056;14.408;2022-10-16T10:20:28;6.43;;;2.95;;
38911;SDS011;28444;48.056;14.408;2022-10-16T10:22:59;8.48;;;3.50;;
38911;SDS011;28444;48.056;14.408;2022-10-16T10:31:46;4.22;;;2.53;;
38911;SDS011;28444;48.056;14.408;2022-10-16T10:34:44;8.00;;;3.20;;
38911;SDS011;28444;48.056;14.408;2022-10-16T10:40:51;7.78;;;3.47;;
38911;SDS011;28444;48.056;14.408;2022-10-16T10:46:56;6.07;;;3.40;;
38911;SDS011;28444;48.056;14.408;2022-10-16T10:52:43;6.00;;;3.58;;
38911;SDS011;28444;48.056;14.408;2022-10-16T10:56:17;3.90;;;3.10;;
38911;SDS011;28444;48.056;14.408;2022-10-16T11:05:14;4.47;;;3.13;;
38911;SDS011;28444;48.056;14.408;2022-10-16T11:07:33;9.02;;;3.50;;
38911;SDS011;28444;48.056;14.408;2022-10-16T11:10:24;4.05;;;3.00;;
38911;SDS011;28444;48.056;14.408;2022-10-16T11:12:57;9.35;;;3.38;;
38911;SDS011;28444;48.056;14.408;2022-10-16T11:15:35;4.80;;;3.17;;
38911;SDS011;28444;48.056;14.408;2022-10-16T11:18:06;4.32;;;2.92;;
38911;SDS011;28444;48.056;14.408;2022-10-16T11:20:50;5.57;;;3.08;;
38911;SDS011;28444;48.056;14.408;2022-10-16T11:26:33;6.82;;;3.05;;
38911;SDS011;28444;48.056;14.408;2022-10-16T11:29:02;6.10;;;2.97;;
38911;SDS011;28444;48.056;14.408;2022-10-16T11:31:43;18.25;;;3.50;;
38911;SDS011;28444;48.056;14.408;2022-10-16T11:37:22;6.70;;;3.30;;
38911;SDS011;28444;48.056;14.408;2022-10-16T11:39:54;4.07;;;3.15;;
38911;SDS011;28444;48.056;14.408;2022-10-16T11:42:46;5.43;;;2.78;;
38911;SDS011;28444;48.056;14.408;2022-10-16T11:45:24;5.88;;;2.97;;
38911;SDS011;28444;48.056;14.408;2022-10-16T11:48:00;9.32;;;3.15;;
38911;SDS011;28444;48.056;14.408;2022-10-16T11:56:20;3.35;;;2.25;;
38911;SDS011;28444;48.056;14.408;2022-10-16T11:58:59;3.95;;;2.10;;
38911;SDS011;28444;48.056;14.408;2022-10-16T12:01:42;3.58;;;2.30;;
38911;SDS011;28444;48.056;14.408;2022-10-16T12:07:04;10.15;;;2.50;;
38911;SDS011;28444;48.056;14.408;2022-10-16T12:09:39;8.05;;;2.45;;
38911;SDS011;28444;48.056;14.408;2022-10-16T12:12:26;4.57;;;2.08;;
38911;SDS011;28444;48.056;14.408;2022-10-16T12:15:21;4.72;;;2.17;;
38911;SDS011;28444;48.056;14.408;2022-10-16T12:18:22;3.35;;;1.98;;
38911;SDS011;28444;48.056;14.408;2022-10-16T12:20:54;4.40;;;2.28;;
38911;SDS011;28444;48.056;14.408;2022-10-16T12:23:25;3.97;;;1.83;;
38911;SDS011;28444;48.056;14.408;2022-10-16T12:25:56;6.88;;;2.70;;
38911;SDS011;28444;48.056;14.408;2022-10-16T12:28:28;3.72;;;2.40;;
38911;SDS011;28444;48.056;14.408;2022-10-16T12:31:06;2.80;;;2.50;;
38911;SDS011;28444;48.056;14.408;2022-10-16T12:33:42;4.68;;;2.60;;
38911;SDS011;28444;48.056;14.408;2022-10-16T12:36:27;3.92;;;2.20;;
38911;SDS011;28444;48.056;14.408;2022-10-16T12:38:57;5.28;;;2.38;;
38911;SDS011;28444;48.056;14.408;2022-10-16T12:41:34;2.95;;;2.45;;
38911;SDS011;28444;48.056;14.408;2022-10-16T12:44:03;3.17;;;2.20;;
38911;SDS011;28444;48.056;14.408;2022-10-16T12:46:35;3.90;;;2.50;;
38911;SDS011;28444;48.056;14.408;2022-10-16T12:52:02;3.28;;;2.00;;
38911;SDS011;28444;48.056;14.408;2022-10-16T12:54:37;2.45;;;2.25;;
38911;SDS011;28444;48.056;14.408;2022-10-16T13:06:30;5.38;;;2.20;;
38911;SDS011;28444;48.056;14.408;2022-10-16T13:09:51;2.95;;;2.53;;
38911;SDS011;28444;48.056;14.408;2022-10-16T13:12:27;4.43;;;2.08;;
38911;SDS011;28444;48.056;14.408;2022-10-16T13:16:48;4.32;;;2.30;;
38911;SDS011;28444;48.056;14.408;2022-10-16T13:28:22;5.40;;;2.22;;
38911;SDS011;28444;48.056;14.408;2022-10-16T13:30:56;6.90;;;1.67;;
38911;SDS011;28444;48.056;14.408;2022-10-16T13:36:03;5.45;;;2.10;;
38911;SDS011;28444;48.056;14.408;2022-10-16T13:38:31;6.78;;;2.47;;
38911;SDS011;28444;48.056;14.408;2022-10-16T13:41:04;3.10;;;2.28;;
38911;SDS011;28444;48.056;14.408;2022-10-16T13:43:36;3.42;;;2.33;;
38911;SDS011;28444;48.056;14.408;2022-10-16T13:46:07;8.50;;;2.33;;
38911;SDS011;28444;48.056;14.408;2022-10-16T13:49:00;3.17;;;1.70;;
38911;SDS011;28444;48.056;14.408;2022-10-16T13:51:30;4.43;;;2.03;;
38911;SDS011;28444;48.056;14.408;2022-10-16T13:53:57;5.35;;;1.90;;
38911;SDS011;28444;48.056;14.408;2022-10-16T13:56:25;2.90;;;1.83;;
38911;SDS011;28444;48.056;14.408;2022-10-16T13:58:58;3.88;;;2.22;;
38911;SDS011;28444;48.056;14.408;2022-10-16T14:01:30;3.70;;;2.10;;
38911;SDS011;28444;48.056;14.408;2022-10-16T14:04:07;2.45;;;1.83;;
38911;SDS011;28444;48.056;14.408;2022-10-16T14:06:36;2.80;;;1.65;;
38911;SDS011;28444;48.056;14.408;2022-10-16T14:09:49;4.35;;;1.98;;
38911;SDS011;28444;48.056;14.408;2022-10-16T14:12:01;2.83;;;1.98;;
38911;SDS011;28444;48.056;14.408;2022-10-16T14:14:33;3.38;;;2.05;;
38911;SDS011;28444;48.056;14.408;2022-10-16T14:17:02;2.25;;;1.80;;
38911;SDS011;28444;48.056;14.408;2022-10-16T14:19:29;3.88;;;1.67;;
38911;SDS011;28444;48.056;14.408;2022-10-16T14:21:57;2.78;;;1.77;;
38911;SDS011;28444;48.056;14.408;2022-10-16T14:24:27;4.68;;;1.90;;
38911;SDS011;28444;48.056;14.408;2022-10-16T14:26:59;3.22;;;1.80;;
38911;SDS011;28444;48.056;14.408;2022-10-16T14:29:28;5.40;;;1.95;;
38911;SDS011;28444;48.056;14.408;2022-10-16T14:32:00;5.38;;;1.98;;
38911;SDS011;28444;48.056;14.408;2022-10-16T14:34:31;6.65;;;1.67;;
38911;SDS011;28444;48.056;14.408;2022-10-16T14:37:01;2.33;;;1.90;;
38911;SDS011;28444;48.056;14.408;2022-10-16T14:39:40;1.70;;;1.60;;
38911;SDS011;28444;48.056;14.408;2022-10-16T14:42:17;9.93;;;2.22;;
38911;SDS011;28444;48.056;14.408;2022-10-16T14:44:45;2.00;;;1.83;;
38911;SDS011;28444;48.056;14.408;2022-10-16T14:47:13;4.13;;;1.98;;
38911;SDS011;28444;48.056;14.408;2022-10-16T14:49:48;5.88;;;1.70;;
38911;SDS011;28444;48.056;14.408;2022-10-16T14:52:15;4.25;;;1.85;;
38911;SDS011;28444;48.056;14.408;2022-10-16T14:54:41;4.38;;;1.70;;
38911;SDS011;28444;48.056;14.408;2022-10-16T14:57:18;3.63;;;2.13;;
38911;SDS011;28444;48.056;14.408;2022-10-16T14:59:48;5.90;;;1.92;;
38911;SDS011;28444;48.056;14.408;2022-10-16T15:02:29;3.65;;;2.42;;
38911;SDS011;28444;48.056;14.408;2022-10-16T15:04:58;2.97;;;2.30;;
38911;SDS011;28444;48.056;14.408;2022-10-16T15:07:37;2.65;;;2.13;;
38911;SDS011;28444;48.056;14.408;2022-10-16T15:10:04;3.22;;;2.03;;
38911;SDS011;28444;48.056;14.408;2022-10-16T15:12:31;7.15;;;2.60;;
38911;SDS011;28444;48.056;14.408;2022-10-16T15:14:58;3.90;;;2.33;;
38911;SDS011;28444;48.056;14.408;2022-10-16T15:17:25;7.53;;;2.00;;
38911;SDS011;28444;48.056;14.408;2022-10-16T15:19:52;4.05;;;2.25;;
38911;SDS011;28444;48.056;14.408;2022-10-16T15:22:19;5.93;;;2.92;;
38911;SDS011;28444;48.056;14.408;2022-10-16T15:24:45;55.05;;;50.78;;
38911;SDS011;28444;48.056;14.408;2022-10-16T15:27:12;39.53;;;36.50;;
38911;SDS011;28444;48.056;14.408;2022-10-16T15:29:39;33.22;;;30.75;;
38911;SDS011;28444;48.056;14.408;2022-10-16T15:32:05;32.58;;;30.30;;
38911;SDS011;28444;48.056;14.408;2022-10-16T15:34:32;9.13;;;8.30;;
38911;SDS011;28444;48.056;14.408;2022-10-16T15:36:58;5.03;;;3.45;;
38911;SDS011;28444;48.056;14.408;2022-10-16T15:39:29;4.35;;;3.53;;
38911;SDS011;28444;48.056;14.408;2022-10-16T15:41:56;8.43;;;2.83;;
38911;SDS011;28444;48.056;14.408;2022-10-16T15:44:23;9.02;;;3.13;;
38911;SDS011;28444;48.056;14.408;2022-10-16T15:46:54;6.53;;;3.20;;
38911;SDS011;28444;48.056;14.408;2022-10-16T15:49:21;3.42;;;2.90;;
38911;SDS011;28444;48.056;14.408;2022-10-16T15:51:47;5.38;;;2.95;;
38911;SDS011;28444;48.056;14.408;2022-10-16T15:54:14;5.38;;;2.90;;
38911;SDS011;28444;48.056;14.408;2022-10-16T15:56:41;8.38;;;3.08;;
38911;SDS011;28444;48.056;14.408;2022-10-16T15:59:08;27.08;;;16.58;;
38911;SDS011;28444;48.056;14.408;2022-10-16T16:01:34;11.52;;;3.78;;
38911;SDS011;28444;48.056;14.408;2022-10-16T16:04:02;16.15;;;9.95;;
38911;SDS011;28444;48.056;14.408;2022-10-16T16:06:40;7.07;;;5.80;;
38911;SDS011;28444;48.056;14.408;2022-10-16T16:09:11;6.90;;;3.65;;
38911;SDS011;28444;48.056;14.408;2022-10-16T16:11:39;6.07;;;5.38;;
38911;SDS011;28444;48.056;14.408;2022-10-16T16:14:07;11.25;;;7.97;;
38911;SDS011;28444;48.056;14.408;2022-10-16T16:16:36;7.97;;;4.50;;
38911;SDS011;28444;48.056;14.408;2022-10-16T16:19:04;4.25;;;3.05;;
38911;SDS011;28444;48.056;14.408;2022-10-16T16:21:36;16.25;;;10.23;;
38911;SDS011;28444;48.056;14.408;2022-10-16T16:24:03;14.68;;;7.55;;
38911;SDS011;28444;48.056;14.408;2022-10-16T16:26:34;6.18;;;5.00;;